Time;durP1;ratioP1;P1;durP2;ratioP2;P2;SDS_P1;SDS_P2;PMS_P1;PMS_P2;Temp;Humidity;BMP_temperature;BMP_pressure;BME280_temperature;BME280_humidity;BME280_pressure;Samples;Min_cycle;Max_cycle;Signal;HPM_P1;HPM_P2
2021/01/27 00:00:00;;;;;;;5.57;3.77;;;;;;;-144.15;100.00;63241.31;1035236;28;20030;-63
2021/01/27 00:00:31;;;;;;;5.63;3.50;;;;;;;-144.15;100.00;63241.31;1031622;28;20034;-63
2021/01/27 00:01:01;;;;;;;6.37;3.47;;;;;;;-144.15;100.00;63241.31;1031275;28;20030;-64
2021/01/27 00:01:32;;;;;;;5.87;3.63;;;;;;;-144.15;100.00;63241.31;1035373;28;20180;-64
2021/01/27 00:02:02;;;;;;;7.43;3.80;;;;;;;-144.15;100.00;63241.31;1036651;28;20724;-63
2021/01/27 00:02:34;;;;;;;6.07;3.70;;;;;;;-144.15;100.00;63241.31;1034937;28;20054;-63
2021/01/27 00:03:05;;;;;;;6.88;3.47;;;;;;;-144.15;100.00;63241.31;1026580;28;20089;-63
2021/01/27 00:03:35;;;;;;;6.50;3.60;;;;;;;-144.15;100.00;63241.31;1027553;28;20343;-63
2021/01/27 00:04:05;;;;;;;5.67;3.70;;;;;;;-144.15;100.00;63241.31;1027122;28;20034;-62
2021/01/27 00:04:36;;;;;;;7.57;4.00;;;;;;;-144.15;100.00;63241.31;1027189;28;20126;-63
2021/01/27 00:05:10;;;;;;;9.70;4.23;;;;;;;-144.15;100.00;63241.31;1026437;28;20424;-61
2021/01/27 00:05:43;;;;;;;4.72;3.40;;;;;;;-144.15;100.00;63241.31;1028181;28;20027;-64
2021/01/27 00:06:13;;;;;;;8.82;3.83;;;;;;;-144.15;100.00;63241.31;1027147;28;20031;-63
2021/01/27 00:06:44;;;;;;;7.17;4.07;;;;;;;-144.15;100.00;63241.31;1027823;28;20104;-64
2021/01/27 00:07:14;;;;;;;4.87;3.60;;;;;;;-144.15;100.00;63241.31;1026716;28;20039;-63
2021/01/27 00:07:45;;;;;;;6.07;3.73;;;;;;;-144.15;100.00;63241.31;1023397;28;20079;-65
2021/01/27 00:08:15;;;;;;;8.43;3.87;;;;;;;-144.15;100.00;63241.31;1027256;28;20023;-63
2021/01/27 00:08:46;;;;;;;6.33;3.70;;;;;;;-144.15;100.00;63241.31;1028494;28;20610;-65
2021/01/27 00:09:17;;;;;;;5.93;4.30;;;;;;;-144.15;100.00;63241.31;1035137;28;20050;-63
2021/01/27 00:09:47;;;;;;;6.60;4.00;;;;;;;-144.15;100.00;63241.31;1031125;28;20076;-63
2021/01/27 00:10:18;;;;;;;4.97;3.60;;;;;;;-144.15;100.00;63241.31;1031209;28;20074;-63
2021/01/27 00:10:48;;;;;;;6.80;3.97;;;;;;;-144.15;100.00;63241.31;1026515;28;20033;-63
2021/01/27 00:11:19;;;;;;;6.10;3.70;;;;;;;-144.15;100.00;63241.31;1019180;29;20039;-63
2021/01/27 00:11:49;;;;;;;7.53;3.83;;;;;;;-144.15;100.00;63241.31;1022079;28;20035;-62
2021/01/27 00:12:20;;;;;;;5.27;3.10;;;;;;;-144.15;100.00;63241.31;1023130;28;20066;-63
2021/01/27 00:12:50;;;;;;;6.83;4.10;;;;;;;-144.15;100.00;63241.31;1030856;28;20037;-63
2021/01/27 00:13:21;;;;;;;5.53;3.60;;;;;;;-144.15;100.00;63241.31;1039274;28;20107;-62
2021/01/27 00:13:51;;;;;;;6.03;3.30;;;;;;;-144.15;100.00;63241.31;1039047;28;20483;-62
2021/01/27 00:14:22;;;;;;;7.10;3.77;;;;;;;-144.15;100.00;63241.31;1033440;28;20076;-64
2021/01/27 00:14:52;;;;;;;8.53;3.90;;;;;;;-144.15;100.00;63241.31;1026710;28;20081;-63
2021/01/27 00:15:31;;;;;;;5.27;3.73;;;;;;;-144.15;100.00;63241.31;1022837;29;20154;-63
2021/01/27 00:16:01;;;;;;;9.82;4.10;;;;;;;-144.15;100.00;63241.31;1024084;28;20118;-63
2021/01/27 00:16:38;;;;;;;7.83;3.73;;;;;;;-144.15;100.00;63241.31;1028300;28;20113;-63
2021/01/27 00:17:08;;;;;;;6.60;3.92;;;;;;;-144.15;100.00;63241.31;1034849;28;20510;-64
2021/01/27 00:17:39;;;;;;;5.63;3.43;;;;;;;-144.15;100.00;63241.31;1039446;28;20224;-63
2021/01/27 00:18:11;;;;;;;7.27;3.73;;;;;;;-144.15;100.00;63241.31;1042496;28;20025;-64
2021/01/27 00:18:42;;;;;;;5.88;3.88;;;;;;;-144.15;100.00;63241.31;1039317;28;20024;-64
2021/01/27 00:19:12;;;;;;;6.27;3.40;;;;;;;-144.15;100.00;63241.31;1039251;28;20033;-62
2021/01/27 00:19:43;;;;;;;8.33;3.33;;;;;;;-144.15;100.00;63241.31;1038910;28;20537;-63
2021/01/27 00:20:14;;;;;;;5.20;3.30;;;;;;;-144.15;100.00;63241.31;1039620;28;20075;-63
2021/01/27 00:20:45;;;;;;;8.55;3.40;;;;;;;-144.15;100.00;63241.31;1039145;28;20040;-63
2021/01/27 00:21:15;;;;;;;8.03;3.90;;;;;;;-144.15;100.00;63241.31;1026482;28;20114;-62
2021/01/27 00:21:46;;;;;;;7.40;3.47;;;;;;;-144.15;100.00;63241.31;1023016;29;20027;-64
2021/01/27 00:22:16;;;;;;;8.10;3.67;;;;;;;-144.15;100.00;63241.31;1023675;28;20046;-63
2021/01/27 00:22:47;;;;;;;5.67;3.53;;;;;;;-144.15;100.00;63241.31;1030675;28;20080;-64
2021/01/27 00:23:17;;;;;;;5.97;4.00;;;;;;;-144.15;100.00;63241.31;1031179;28;20014;-64
2021/01/27 00:23:48;;;;;;;6.43;3.73;;;;;;;-144.15;100.00;63241.31;1026963;28;20130;-65
2021/01/27 00:24:18;;;;;;;8.10;3.90;;;;;;;-144.15;100.00;63241.31;1023067;29;20118;-63
2021/01/27 00:24:49;;;;;;;5.97;3.80;;;;;;;-144.15;100.00;63241.31;1022388;28;20067;-63
2021/01/27 00:25:22;;;;;;;5.53;3.37;;;;;;;-144.15;100.00;63241.31;1023029;28;20015;-64
2021/01/27 00:25:52;;;;;;;6.82;3.33;;;;;;;-144.15;100.00;63241.31;1027486;28;20588;-64
2021/01/27 00:26:23;;;;;;;5.70;3.60;;;;;;;-144.15;100.00;63241.31;1031039;28;20038;-64
2021/01/27 00:26:53;;;;;;;6.33;3.40;;;;;;;-144.15;100.00;63241.31;1031524;28;20034;-64
2021/01/27 00:27:24;;;;;;;8.63;3.63;;;;;;;-144.15;100.00;63241.31;1035079;28;20108;-64
2021/01/27 00:27:54;;;;;;;6.20;3.80;;;;;;;-144.15;100.00;63241.31;1030554;28;20045;-64
2021/01/27 00:28:25;;;;;;;10.00;3.47;;;;;;;-144.15;100.00;63241.31;1031262;28;20057;-64
2021/01/27 00:28:55;;;;;;;5.03;3.33;;;;;;;-144.15;100.00;63241.31;1023108;29;20028;-64
2021/01/27 00:29:26;;;;;;;7.40;3.70;;;;;;;-144.15;100.00;63241.31;1026459;28;20023;-64
2021/01/27 00:29:57;;;;;;;6.97;3.77;;;;;;;-144.15;100.00;63241.31;1023153;28;20563;-64
2021/01/27 00:30:32;;;;;;;5.55;3.47;;;;;;;-144.15;100.00;63241.31;1027329;28;20054;-64
2021/01/27 00:31:02;;;;;;;4.90;3.90;;;;;;;-144.15;100.00;63241.31;1032633;28;20049;-63
2021/01/27 00:31:33;;;;;;;7.57;3.77;;;;;;;-144.15;100.00;63241.31;1034274;28;20538;-64
2021/01/27 00:32:03;;;;;;;7.60;3.90;;;;;;;-144.15;100.00;63241.31;1035128;28;20055;-63
2021/01/27 00:32:34;;;;;;;6.43;3.43;;;;;;;-144.15;100.00;63241.31;1036400;28;20022;-64
2021/01/27 00:33:06;;;;;;;7.43;3.87;;;;;;;-144.15;100.00;63241.31;1029633;28;20038;-64
2021/01/27 00:33:36;;;;;;;4.68;3.28;;;;;;;-144.15;100.00;63241.31;1027180;28;20137;-63
2021/01/27 00:34:07;;;;;;;6.17;3.70;;;;;;;-144.15;100.00;63241.31;1027061;28;20579;-65
2021/01/27 00:34:37;;;;;;;6.83;3.67;;;;;;;-144.15;100.00;63241.31;1031254;28;20029;-63
2021/01/27 00:35:08;;;;;;;4.73;3.40;;;;;;;-144.15;100.00;63241.31;1038636;28;20021;-64
2021/01/27 00:35:45;;;;;;;7.35;3.50;;;;;;;-144.15;100.00;63241.31;1039296;28;20127;-63
2021/01/27 00:36:15;;;;;;;8.50;3.88;;;;;;;-144.15;100.00;63241.31;1034940;28;20051;-65
2021/01/27 00:36:45;;;;;;;6.33;4.27;;;;;;;-144.15;100.00;63241.31;1030975;28;20480;-63
2021/01/27 00:37:16;;;;;;;5.17;3.40;;;;;;;-144.15;100.00;63241.31;1026992;28;20105;-64
2021/01/27 00:37:46;;;;;;;6.73;3.93;;;;;;;-144.15;100.00;63241.31;1027298;28;20057;-64
2021/01/27 00:38:26;;;;;;;9.20;4.37;;;;;;;-144.15;100.00;63241.31;1030767;28;20463;-65
2021/01/27 00:38:56;;;;;;;8.10;3.72;;;;;;;-144.15;100.00;63241.31;1032395;28;20134;-63
2021/01/27 00:39:27;;;;;;;4.97;2.93;;;;;;;-144.15;100.00;63241.31;1035112;28;20375;-63
2021/01/27 00:39:57;;;;;;;5.17;3.43;;;;;;;-144.15;100.00;63241.31;1030574;28;20041;-62
2021/01/27 00:40:28;;;;;;;6.00;3.80;;;;;;;-144.15;100.00;63241.31;1031011;28;20365;-63
2021/01/27 00:40:58;;;;;;;5.00;3.30;;;;;;;-144.15;100.00;63241.31;1030992;28;20077;-63
2021/01/27 00:41:29;;;;;;;5.90;3.60;;;;;;;-144.15;100.00;63241.31;1026932;28;20027;-63
2021/01/27 00:41:59;;;;;;;5.30;3.67;;;;;;;-144.15;100.00;63241.31;1026951;28;20115;-62
2021/01/27 00:42:30;;;;;;;6.90;3.50;;;;;;;-144.15;100.00;63241.31;1027157;28;20126;-63
2021/01/27 00:43:00;;;;;;;7.00;3.80;;;;;;;-144.15;100.00;63241.31;1030967;28;20670;-63
2021/01/27 00:43:31;;;;;;;7.47;4.20;;;;;;;-144.15;100.00;63241.31;1030836;28;20022;-64
2021/01/27 00:44:01;;;;;;;5.10;3.53;;;;;;;-144.15;100.00;63241.31;1031006;28;20035;-62
2021/01/27 00:44:32;;;;;;;6.37;3.77;;;;;;;-144.15;100.00;63241.31;1030926;28;20034;-63
2021/01/27 00:45:03;;;;;;;7.70;3.93;;;;;;;-144.15;100.00;63241.31;1030270;28;20165;-64
2021/01/27 00:45:34;;;;;;;6.05;3.90;;;;;;;-144.15;100.00;63241.31;1035372;28;20121;-64
2021/01/27 00:46:04;;;;;;;6.33;3.40;;;;;;;-144.15;100.00;63241.31;1034816;28;20033;-63
2021/01/27 00:46:35;;;;;;;6.23;3.53;;;;;;;-144.15;100.00;63241.31;1034752;28;20058;-65
2021/01/27 00:47:05;;;;;;;6.07;3.37;;;;;;;-144.15;100.00;63241.31;1030969;28;20538;-62
2021/01/27 00:47:36;;;;;;;7.10;3.50;;;;;;;-144.15;100.00;63241.31;1031265;28;20113;-63
2021/01/27 00:48:07;;;;;;;5.03;3.37;;;;;;;-144.15;100.00;63241.31;1030886;28;20049;-64
2021/01/27 00:48:37;;;;;;;5.67;3.73;;;;;;;-144.15;100.00;63241.31;1026794;28;20037;-63
2021/01/27 00:49:08;;;;;;;5.10;3.57;;;;;;;-144.15;100.00;63241.31;1030999;28;20284;-64
2021/01/27 00:49:39;;;;;;;6.80;3.70;;;;;;;-144.15;100.00;63241.31;1031047;28;20447;-63
2021/01/27 00:50:10;;;;;;;4.38;3.72;;;;;;;-144.15;100.00;63241.31;1030608;28;20054;-63
2021/01/27 00:50:40;;;;;;;7.77;3.80;;;;;;;-144.15;100.00;63241.31;1030888;28;20026;-63
2021/01/27 00:51:11;;;;;;;5.83;4.20;;;;;;;-144.15;100.00;63241.31;1026897;28;20033;-63
2021/01/27 00:51:41;;;;;;;7.73;3.93;;;;;;;-144.15;100.00;63241.31;1026774;28;20037;-65
2021/01/27 00:52:12;;;;;;;5.83;3.90;;;;;;;-144.15;100.00;63241.31;1027028;28;20041;-64
2021/01/27 00:52:43;;;;;;;6.43;4.40;;;;;;;-144.15;100.00;63241.31;1030945;28;20141;-63
2021/01/27 00:53:13;;;;;;;7.83;3.53;;;;;;;-144.15;100.00;63241.31;1034994;28;20921;-63
2021/01/27 00:53:44;;;;;;;5.57;3.70;;;;;;;-144.15;100.00;63241.31;1030375;28;20423;-64
2021/01/27 00:54:14;;;;;;;5.63;3.60;;;;;;;-144.15;100.00;63241.31;1035034;28;20026;-63
2021/01/27 00:54:45;;;;;;;6.07;3.63;;;;;;;-144.15;100.00;63241.31;1028537;28;20064;-60
2021/01/27 00:55:17;;;;;;;7.43;3.30;;;;;;;-144.15;100.00;63241.31;1026837;28;20823;-63
2021/01/27 00:55:48;;;;;;;7.55;3.65;;;;;;;-144.15;100.00;63241.31;1031460;28;20229;-63
2021/01/27 00:56:20;;;;;;;4.70;3.70;;;;;;;-144.15;100.00;63241.31;1031114;28;20512;-63
2021/01/27 00:56:50;;;;;;;4.65;3.70;;;;;;;-144.15;100.00;63241.31;1034506;28;20049;-63
2021/01/27 00:57:21;;;;;;;6.20;4.10;;;;;;;-144.15;100.00;63241.31;1034637;28;20058;-63
2021/01/27 00:57:51;;;;;;;6.23;3.50;;;;;;;-144.15;100.00;63241.31;1034725;28;20483;-63
2021/01/27 00:58:21;;;;;;;9.27;4.17;;;;;;;-144.15;100.00;63241.31;1035049;28;20091;-63
2021/01/27 00:58:52;;;;;;;5.40;3.53;;;;;;;-144.15;100.00;63241.31;1034680;28;20064;-64
2021/01/27 00:59:22;;;;;;;6.17;4.00;;;;;;;-144.15;100.00;63241.31;1035015;28;20025;-63
2021/01/27 00:59:53;;;;;;;6.53;3.90;;;;;;;-144.15;100.00;63241.31;1034933;28;20037;-63
2021/01/27 01:00:41;;;;;;;4.67;3.40;;;;;;;-144.15;100.00;63241.31;1034571;28;20518;-63
2021/01/27 01:01:12;;;;;;;6.13;3.53;;;;;;;-144.15;100.00;63241.31;1030888;28;20026;-63
2021/01/27 01:01:42;;;;;;;9.57;3.87;;;;;;;-144.15;100.00;63241.31;1033547;28;20055;-63
2021/01/27 01:02:13;;;;;;;5.57;3.47;;;;;;;-144.15;100.00;63241.31;1034627;28;20034;-63
2021/01/27 01:02:43;;;;;;;4.87;3.63;;;;;;;-144.15;100.00;63241.31;1035240;28;20523;-63
2021/01/27 01:03:14;;;;;;;5.00;3.57;;;;;;;-144.15;100.00;63241.31;1038980;28;20060;-64
2021/01/27 01:03:44;;;;;;;5.80;3.73;;;;;;;-144.15;100.00;63241.31;1038825;28;20105;-62
2021/01/27 01:04:15;;;;;;;6.83;3.83;;;;;;;-144.15;100.00;63241.31;1034864;28;20061;-63
2021/01/27 01:04:45;;;;;;;6.50;4.00;;;;;;;-144.15;100.00;63241.31;1030310;28;20034;-61
2021/01/27 01:05:18;;;;;;;5.33;3.47;;;;;;;-144.15;100.00;63241.31;1030253;28;20486;-63
2021/01/27 01:05:49;;;;;;;5.38;3.72;;;;;;;-144.15;100.00;63241.31;1027232;28;20836;-63
2021/01/27 01:06:19;;;;;;;8.40;3.87;;;;;;;-144.15;100.00;63241.31;1031281;28;20042;-63
2021/01/27 01:06:50;;;;;;;5.37;3.77;;;;;;;-144.15;100.00;63241.31;1035067;28;20050;-63
2021/01/27 01:07:20;;;;;;;6.87;3.93;;;;;;;-144.15;100.00;63241.31;1034536;28;20068;-61
2021/01/27 01:07:51;;;;;;;6.17;3.83;;;;;;;-144.15;100.00;63241.31;1034969;28;20033;-63
2021/01/27 01:08:22;;;;;;;5.77;4.00;;;;;;;-144.15;100.00;63241.31;1034890;28;20428;-63
2021/01/27 01:08:52;;;;;;;6.13;3.80;;;;;;;-144.15;100.00;63241.31;1034823;28;20036;-63
2021/01/27 01:09:23;;;;;;;4.87;3.47;;;;;;;-144.15;100.00;63241.31;1034788;28;20033;-64
2021/01/27 01:09:53;;;;;;;7.80;4.47;;;;;;;-144.15;100.00;63241.31;1030964;28;20105;-63
2021/01/27 01:10:25;;;;;;;8.10;4.17;;;;;;;-144.15;100.00;63241.31;1030775;28;20018;-64
2021/01/27 01:10:59;;;;;;;5.88;4.00;;;;;;;-144.15;100.00;63241.31;1026729;28;20742;-65
2021/01/27 01:11:29;;;;;;;6.05;3.50;;;;;;;-144.15;100.00;63241.31;1028154;28;20401;-64
2021/01/27 01:12:00;;;;;;;6.07;3.50;;;;;;;-144.15;100.00;63241.31;1034922;28;20073;-63
2021/01/27 01:12:30;;;;;;;5.80;3.87;;;;;;;-144.15;100.00;63241.31;1035228;28;20026;-63
2021/01/27 01:13:01;;;;;;;5.80;3.97;;;;;;;-144.15;100.00;63241.31;1039047;28;20029;-64
2021/01/27 01:13:31;;;;;;;5.77;3.70;;;;;;;-144.15;100.00;63241.31;1034802;28;20018;-63
2021/01/27 01:14:02;;;;;;;6.90;4.00;;;;;;;-144.15;100.00;63241.31;1034786;28;20029;-63
2021/01/27 01:14:32;;;;;;;5.10;3.50;;;;;;;-144.15;100.00;63241.31;1034490;28;20022;-63
2021/01/27 01:15:03;;;;;;;6.33;3.53;;;;;;;-144.15;100.00;63241.31;1030388;28;20061;-62
2021/01/27 01:15:34;;;;;;;5.50;3.90;;;;;;;-144.15;100.00;63241.31;1034754;28;20103;-66
2021/01/27 01:16:04;;;;;;;4.97;3.80;;;;;;;-144.15;100.00;63241.31;1034654;28;20798;-62
2021/01/27 01:16:34;;;;;;;4.47;3.37;;;;;;;-144.15;100.00;63241.31;1035030;28;20113;-63
2021/01/27 01:17:05;;;;;;;6.27;3.57;;;;;;;-144.15;100.00;63241.31;1039035;28;20396;-60
2021/01/27 01:17:35;;;;;;;10.27;3.93;;;;;;;-144.15;100.00;63241.31;1038766;28;20029;-62
2021/01/27 01:18:06;;;;;;;5.77;3.87;;;;;;;-144.15;100.00;63241.31;1038822;28;20499;-63
2021/01/27 01:18:36;;;;;;;6.17;3.47;;;;;;;-144.15;100.00;63241.31;1034827;28;20030;-63
2021/01/27 01:19:08;;;;;;;8.53;3.60;;;;;;;-144.15;100.00;63241.31;1034777;28;20034;-64
2021/01/27 01:19:38;;;;;;;11.65;3.95;;;;;;;-144.15;100.00;63241.31;1023622;28;20023;-63
2021/01/27 01:20:14;;;;;;;5.37;3.20;;;;;;;-144.15;100.00;63241.31;1023047;28;20027;-65
2021/01/27 01:20:45;;;;;;;5.13;3.70;;;;;;;-144.15;100.00;63241.31;1025105;28;20035;-63
2021/01/27 01:21:15;;;;;;;6.63;3.38;;;;;;;-144.15;100.00;63241.31;1029901;28;20514;-64
2021/01/27 01:21:46;;;;;;;6.23;3.50;;;;;;;-144.15;100.00;63241.31;1034889;28;20030;-64
2021/01/27 01:22:17;;;;;;;7.07;3.87;;;;;;;-144.15;100.00;63241.31;1035142;28;20432;-64
2021/01/27 01:22:51;;;;;;;5.80;3.63;;;;;;;-144.15;100.00;63241.31;1038546;28;20536;-63
2021/01/27 01:23:22;;;;;;;5.13;3.65;;;;;;;-144.15;100.00;63241.31;1034942;28;20369;-63
2021/01/27 01:23:52;;;;;;;5.47;3.50;;;;;;;-144.15;100.00;63241.31;1030792;28;20177;-63
2021/01/27 01:24:23;;;;;;;6.30;3.63;;;;;;;-144.15;100.00;63241.31;1029181;28;20472;-62
2021/01/27 01:24:54;;;;;;;5.27;4.10;;;;;;;-144.15;100.00;63241.31;1026209;28;20105;-64
2021/01/27 01:25:26;;;;;;;5.27;3.73;;;;;;;-144.15;100.00;63241.31;1022811;28;20066;-63
2021/01/27 01:25:57;;;;;;;8.07;3.97;;;;;;;-144.15;100.00;63241.31;1022831;28;20575;-64
2021/01/27 01:26:27;;;;;;;6.27;3.70;;;;;;;-144.15;100.00;63241.31;1026991;28;20066;-63
2021/01/27 01:26:57;;;;;;;6.97;4.00;;;;;;;-144.15;100.00;63241.31;1031259;28;20034;-62
2021/01/27 01:27:28;;;;;;;7.63;3.50;;;;;;;-144.15;100.00;63241.31;1034940;28;20022;-63
2021/01/27 01:27:59;;;;;;;4.63;3.40;;;;;;;-144.15;100.00;63241.31;1034349;28;20026;-63
2021/01/27 01:28:29;;;;;;;6.30;3.83;;;;;;;-144.15;100.00;63241.31;1035199;28;20037;-63
2021/01/27 01:29:00;;;;;;;5.47;4.10;;;;;;;-144.15;100.00;63241.31;1030888;28;20037;-63
2021/01/27 01:29:30;;;;;;;8.50;4.10;;;;;;;-144.15;100.00;63241.31;1030781;28;20027;-62
2021/01/27 01:30:01;;;;;;;5.40;4.10;;;;;;;-144.15;100.00;63241.31;1030809;28;20034;-63
2021/01/27 01:30:34;;;;;;;8.80;4.17;;;;;;;-144.15;100.00;63241.31;1030711;28;20038;-63
2021/01/27 01:31:05;;;;;;;8.75;3.92;;;;;;;-144.15;100.00;63241.31;1034843;28;20032;-63
2021/01/27 01:31:35;;;;;;;5.40;3.70;;;;;;;-144.15;100.00;63241.31;1031309;28;20069;-63
2021/01/27 01:32:06;;;;;;;9.03;4.00;;;;;;;-144.15;100.00;63241.31;1030842;28;20038;-63
2021/01/27 01:32:36;;;;;;;8.40;4.10;;;;;;;-144.15;100.00;63241.31;1029564;28;20102;-64
2021/01/27 01:33:14;;;;;;;5.77;3.40;;;;;;;-144.15;100.00;63241.31;1030815;28;20026;-64
2021/01/27 01:33:45;;;;;;;7.00;3.78;;;;;;;-144.15;100.00;63241.31;1030981;28;20026;-63
2021/01/27 01:34:15;;;;;;;7.00;4.13;;;;;;;-144.15;100.00;63241.31;1026559;28;20026;-64
2021/01/27 01:34:46;;;;;;;6.97;3.70;;;;;;;-144.15;100.00;63241.31;1026013;28;20535;-63
2021/01/27 01:35:17;;;;;;;7.10;3.97;;;;;;;-144.15;100.00;63241.31;1027374;28;20050;-63
2021/01/27 01:35:48;;;;;;;5.85;4.03;;;;;;;-144.15;100.00;63241.31;1027035;28;20062;-63
2021/01/27 01:36:19;;;;;;;7.15;3.40;;;;;;;-144.15;100.00;63241.31;1026463;28;20086;-65
2021/01/27 01:36:49;;;;;;;6.13;3.80;;;;;;;-144.15;100.00;63241.31;1022718;29;20521;-63
2021/01/27 01:37:20;;;;;;;5.27;3.50;;;;;;;-144.15;100.00;63241.31;1026731;28;20065;-63
2021/01/27 01:37:50;;;;;;;6.03;4.10;;;;;;;-144.15;100.00;63241.31;1025367;28;20060;-64
2021/01/27 01:38:21;;;;;;;6.53;3.93;;;;;;;-144.15;100.00;63241.31;1033471;28;20056;-65
2021/01/27 01:38:51;;;;;;;7.37;3.63;;;;;;;-144.15;100.00;63241.31;1034870;28;20535;-63
2021/01/27 01:39:22;;;;;;;7.00;4.17;;;;;;;-144.15;100.00;63241.31;1037827;28;20022;-63
2021/01/27 01:39:52;;;;;;;4.90;3.50;;;;;;;-144.15;100.00;63241.31;1034724;28;20625;-64
2021/01/27 01:40:25;;;;;;;5.23;3.77;;;;;;;-144.15;100.00;63241.31;1030633;28;20037;-63
2021/01/27 01:41:00;;;;;;;6.47;4.15;;;;;;;-144.15;100.00;63241.31;1030703;28;20095;-63
2021/01/27 01:41:31;;;;;;;9.98;4.00;;;;;;;-144.15;100.00;63241.31;1027614;28;20046;-63
2021/01/27 01:42:01;;;;;;;6.97;3.60;;;;;;;-144.15;100.00;63241.31;1031731;28;20479;-63
2021/01/27 01:42:32;;;;;;;7.97;3.83;;;;;;;-144.15;100.00;63241.31;1035577;28;20038;-63
2021/01/27 01:43:09;;;;;;;5.40;3.70;;;;;;;-144.15;100.00;63241.31;1037944;28;20072;-64
2021/01/27 01:43:40;;;;;;;6.85;4.38;;;;;;;-144.15;100.00;63241.31;1026802;28;20035;-63
2021/01/27 01:44:11;;;;;;;8.77;3.95;;;;;;;-144.15;100.00;63241.31;1026757;28;20109;-63
2021/01/27 01:44:41;;;;;;;5.50;3.70;;;;;;;-144.15;100.00;63241.31;1032158;28;20130;-62
2021/01/27 01:45:20;;;;;;;5.37;3.90;;;;;;;-144.15;100.00;63241.31;1035087;28;20032;-64
2021/01/27 01:45:54;;;;;;;7.32;3.75;;;;;;;-144.15;100.00;63241.31;1034934;28;20032;-63
2021/01/27 01:46:24;;;;;;;7.97;3.92;;;;;;;-144.15;100.00;63241.31;1034721;28;20445;-63
2021/01/27 01:46:55;;;;;;;9.17;4.07;;;;;;;-144.15;100.00;63241.31;1034473;28;20052;-63
2021/01/27 01:47:28;;;;;;;5.63;4.28;;;;;;;-144.15;100.00;63241.31;1035582;28;20098;-64
2021/01/27 01:48:00;;;;;;;6.83;4.03;;;;;;;-144.15;100.00;63241.31;1038896;28;20148;-63
2021/01/27 01:48:38;;;;;;;8.13;4.22;;;;;;;-144.15;100.00;63241.31;1026346;28;20107;-65
2021/01/27 01:49:09;;;;;;;7.30;4.10;;;;;;;-144.15;100.00;63241.31;1022644;29;20674;-63
2021/01/27 01:49:39;;;;;;;10.37;4.53;;;;;;;-144.15;100.00;63241.31;1026634;28;20029;-62
2021/01/27 01:50:09;;;;;;;6.23;4.27;;;;;;;-144.15;100.00;63241.31;1026524;28;20102;-63
2021/01/27 01:50:40;;;;;;;6.37;4.40;;;;;;;-144.15;100.00;63241.31;1026747;28;20035;-64
2021/01/27 01:51:16;;;;;;;7.40;4.13;;;;;;;-144.15;100.00;63241.31;1026522;28;20062;-64
2021/01/27 01:51:57;;;;;;;6.88;4.10;;;;;;;-144.15;100.00;63241.31;1032899;28;20481;-64
2021/01/27 01:52:27;;;;;;;6.05;3.80;;;;;;;-144.15;100.00;63241.31;1032846;28;20026;-64
2021/01/27 01:52:58;;;;;;;7.00;3.90;;;;;;;-144.15;100.00;63241.31;1029640;28;20102;-64
2021/01/27 01:53:28;;;;;;;6.83;4.00;;;;;;;-144.15;100.00;63241.31;1026392;28;20038;-65
2021/01/27 01:54:32;;;;;;;9.47;4.43;;;;;;;-144.15;100.00;63241.31;1026967;28;20444;-65
2021/01/27 01:55:02;;;;;;;6.05;3.88;;;;;;;-144.15;100.00;63241.31;1030233;28;20042;-64
2021/01/27 01:55:33;;;;;;;5.00;3.53;;;;;;;-144.15;100.00;63241.31;1034760;28;20581;-63
2021/01/27 01:56:05;;;;;;;9.13;3.77;;;;;;;-144.15;100.00;63241.31;1024095;28;20062;-64
2021/01/27 01:56:37;;;;;;;5.25;3.70;;;;;;;-144.15;100.00;63241.31;1022670;28;20746;-65
2021/01/27 01:57:21;;;;;;;6.97;3.47;;;;;;;-144.15;100.00;63241.31;1030410;28;20022;-63
2021/01/27 01:57:52;;;;;;;6.60;3.97;;;;;;;-144.15;100.00;63241.31;1032048;28;20033;-65
2021/01/27 01:58:22;;;;;;;7.80;4.30;;;;;;;-144.15;100.00;63241.31;1033304;28;20261;-63
2021/01/27 01:58:53;;;;;;;6.40;4.10;;;;;;;-144.15;100.00;63241.31;1028831;28;20050;-63
2021/01/27 01:59:24;;;;;;;10.35;4.35;;;;;;;-144.15;100.00;63241.31;1027151;28;20100;-64
2021/01/27 02:00:07;;;;;;;4.93;3.27;;;;;;;-144.15;100.00;63241.31;1027063;28;20034;-64
2021/01/27 02:00:38;;;;;;;6.65;4.15;;;;;;;-144.15;100.00;63241.31;1028679;28;20054;-64
2021/01/27 02:01:08;;;;;;;6.93;4.00;;;;;;;-144.15;100.00;63241.31;1029120;28;20027;-64
2021/01/27 02:01:45;;;;;;;7.53;3.80;;;;;;;-144.15;100.00;63241.31;1027308;28;20599;-64
2021/01/27 02:02:16;;;;;;;7.45;3.70;;;;;;;-144.15;100.00;63241.31;1023296;28;20027;-64
2021/01/27 02:02:46;;;;;;;6.33;3.80;;;;;;;-144.15;100.00;63241.31;1023982;28;20027;-64
2021/01/27 02:03:17;;;;;;;6.93;3.80;;;;;;;-144.15;100.00;63241.31;1030789;28;20038;-64
2021/01/27 02:03:48;;;;;;;6.83;3.70;;;;;;;-144.15;100.00;63241.31;1030266;28;20034;-63
2021/01/27 02:04:18;;;;;;;9.07;3.83;;;;;;;-144.15;100.00;63241.31;1026632;28;20041;-64
2021/01/27 02:05:13;;;;;;;6.33;3.83;;;;;;;-144.15;100.00;63241.31;1026294;28;20038;-63
2021/01/27 02:05:44;;;;;;;7.45;3.67;;;;;;;-144.15;100.00;63241.31;1030680;28;20030;-64
2021/01/27 02:06:14;;;;;;;6.13;4.50;;;;;;;-144.15;100.00;63241.31;1031033;28;20025;-63
2021/01/27 02:06:45;;;;;;;7.33;3.90;;;;;;;-144.15;100.00;63241.31;1034828;28;20510;-63
2021/01/27 02:07:15;;;;;;;6.93;4.00;;;;;;;-144.15;100.00;63241.31;1033165;28;20549;-64
2021/01/27 02:07:46;;;;;;;6.17;4.20;;;;;;;-144.15;100.00;63241.31;1026531;28;20026;-63
2021/01/27 02:08:18;;;;;;;5.47;3.60;;;;;;;-144.15;100.00;63241.31;1018759;29;20024;-63
2021/01/27 02:08:52;;;;;;;5.20;3.83;;;;;;;-144.15;100.00;63241.31;1018252;29;20047;-63
2021/01/27 02:09:23;;;;;;;6.97;3.55;;;;;;;-144.15;100.00;63241.31;1026109;28;20105;-63
2021/01/27 02:09:53;;;;;;;5.77;4.00;;;;;;;-144.15;100.00;63241.31;1027237;28;20023;-63
2021/01/27 02:10:24;;;;;;;4.90;3.53;;;;;;;-144.15;100.00;63241.31;1027887;28;20015;-64
2021/01/27 02:10:55;;;;;;;10.40;4.67;;;;;;;-144.15;100.00;63241.31;1026400;28;20217;-63
2021/01/27 02:11:47;;;;;;;6.53;4.30;;;;;;;-144.15;100.00;63241.31;1022810;29;20090;-64
2021/01/27 02:12:23;;;;;;;6.30;3.80;;;;;;;-144.15;100.00;63241.31;1027896;28;20769;-63
2021/01/27 02:13:14;;;;;;;6.15;3.72;;;;;;;-144.15;100.00;63241.31;1034590;28;20018;-64
2021/01/27 02:13:58;;;;;;;8.63;3.65;;;;;;;-144.15;100.00;63241.31;1034771;28;20017;-63
2021/01/27 02:14:56;;;;;;;7.00;4.03;;;;;;;-144.15;100.00;63241.31;1032537;28;20883;-64
2021/01/27 02:15:47;;;;;;;7.97;4.00;;;;;;;-144.15;100.00;63241.31;1037845;28;20084;-64
2021/01/27 02:16:28;;;;;;;4.90;3.75;;;;;;;-144.15;100.00;63241.31;1034075;28;20474;-64
2021/01/27 02:17:36;;;;;;;8.15;4.22;;;;;;;-144.15;100.00;63241.31;1030799;28;20808;-63
2021/01/27 02:18:29;;;;;;;8.00;3.63;;;;;;;-144.15;100.00;63241.31;1030000;28;20551;-63
2021/01/27 02:19:25;;;;;;;7.25;3.45;;;;;;;-144.15;100.00;63241.31;1030374;28;20026;-63
2021/01/27 02:20:16;;;;;;;9.02;3.70;;;;;;;-144.15;100.00;63241.31;1026769;28;20030;-64
2021/01/27 02:20:49;;;;;;;8.52;3.33;;;;;;;-144.15;100.00;63241.31;1026626;28;20027;-67
2021/01/27 02:21:49;;;;;;;6.13;4.00;;;;;;;-144.15;100.00;63241.31;1031341;28;20073;-63
2021/01/27 02:22:47;;;;;;;5.68;3.75;;;;;;;-144.15;100.00;63241.31;1034560;28;20011;-62
2021/01/27 02:23:28;;;;;;;7.13;3.60;;;;;;;-144.15;100.00;63241.31;1026586;28;20037;-64
2021/01/27 02:24:23;;;;;;;11.50;3.78;;;;;;;-144.15;100.00;63241.31;1027056;28;20631;-64
2021/01/27 02:25:18;;;;;;;7.72;4.00;;;;;;;-144.15;100.00;63241.31;1026700;28;20023;-63
2021/01/27 02:26:07;;;;;;;8.70;3.95;;;;;;;-144.15;100.00;63241.31;1036084;28;20022;-64
2021/01/27 02:26:56;;;;;;;6.32;3.95;;;;;;;-144.15;100.00;63241.31;1034543;28;20022;-63
2021/01/27 02:27:38;;;;;;;11.05;4.15;;;;;;;-144.15;100.00;63241.31;1035548;28;20081;-63
2021/01/27 02:28:10;;;;;;;5.30;3.88;;;;;;;-144.15;100.00;63241.31;1030583;28;20049;-64
2021/01/27 02:29:06;;;;;;;7.38;3.92;;;;;;;-144.15;100.00;63241.31;1030534;28;20796;-63
2021/01/27 02:30:14;;;;;;;7.00;3.75;;;;;;;-144.15;100.00;63241.31;1023529;28;20087;-63